sensor_id;sensor_type;location;lat;lon;timestamp;temperature;humidity
61117;DHT22;47002;50.856;6.580;2022-09-09T00:00:54;13.60;85.60
61117;DHT22;47002;50.856;6.580;2022-09-09T00:03:25;13.50;86.00
61117;DHT22;47002;50.856;6.580;2022-09-09T00:05:58;13.50;86.40
61117;DHT22;47002;50.856;6.580;2022-09-09T00:08:30;13.40;86.80
61117;DHT22;47002;50.856;6.580;2022-09-09T00:11:02;13.40;87.40
61117;DHT22;47002;50.856;6.580;2022-09-09T00:13:35;13.40;87.10
61117;DHT22;47002;50.856;6.580;2022-09-09T00:16:04;13.50;86.50
61117;DHT22;47002;50.856;6.580;2022-09-09T00:18:40;13.50;85.90
61117;DHT22;47002;50.856;6.580;2022-09-09T00:21:10;13.60;85.80
61117;DHT22;47002;50.856;6.580;2022-09-09T00:23:39;13.60;85.80
61117;DHT22;47002;50.856;6.580;2022-09-09T00:26:10;13.60;84.60
61117;DHT22;47002;50.856;6.580;2022-09-09T00:28:45;13.50;84.10
61117;DHT22;47002;50.856;6.580;2022-09-09T00:31:17;13.60;83.60
61117;DHT22;47002;50.856;6.580;2022-09-09T00:33:44;13.60;83.50
61117;DHT22;47002;50.856;6.580;2022-09-09T00:36:13;13.50;83.10
61117;DHT22;47002;50.856;6.580;2022-09-09T00:38:42;13.60;82.80
61117;DHT22;47002;50.856;6.580;2022-09-09T00:41:13;13.60;82.80
61117;DHT22;47002;50.856;6.580;2022-09-09T00:43:41;13.60;82.90
61117;DHT22;47002;50.856;6.580;2022-09-09T00:46:26;13.60;83.10
61117;DHT22;47002;50.856;6.580;2022-09-09T00:49:04;13.60;83.00
61117;DHT22;47002;50.856;6.580;2022-09-09T00:51:41;13.50;83.40
61117;DHT22;47002;50.856;6.580;2022-09-09T00:54:21;13.50;83.60
61117;DHT22;47002;50.856;6.580;2022-09-09T00:56:56;13.40;83.70
61117;DHT22;47002;50.856;6.580;2022-09-09T00:59:32;13.40;84.00
61117;DHT22;47002;50.856;6.580;2022-09-09T01:02:00;13.40;84.00
61117;DHT22;47002;50.856;6.580;2022-09-09T01:04:29;13.30;84.00
61117;DHT22;47002;50.856;6.580;2022-09-09T01:07:04;13.30;84.20
61117;DHT22;47002;50.856;6.580;2022-09-09T01:09:41;13.30;84.30
61117;DHT22;47002;50.856;6.580;2022-09-09T01:12:12;13.30;84.30
61117;DHT22;47002;50.856;6.580;2022-09-09T01:14:44;13.30;84.40
61117;DHT22;47002;50.856;6.580;2022-09-09T01:17:15;13.30;84.40
61117;DHT22;47002;50.856;6.580;2022-09-09T01:19:51;13.30;84.50
61117;DHT22;47002;50.856;6.580;2022-09-09T01:22:29;13.20;84.60
61117;DHT22;47002;50.856;6.580;2022-09-09T01:25:22;13.10;84.80
61117;DHT22;47002;50.856;6.580;2022-09-09T01:27:55;13.10;85.00
61117;DHT22;47002;50.856;6.580;2022-09-09T01:30:22;13.10;85.20
61117;DHT22;47002;50.856;6.580;2022-09-09T01:32:50;13.10;85.30
61117;DHT22;47002;50.856;6.580;2022-09-09T01:35:29;13.10;85.40
61117;DHT22;47002;50.856;6.580;2022-09-09T01:37:57;13.10;85.60
61117;DHT22;47002;50.856;6.580;2022-09-09T01:40:23;13.10;85.80
61117;DHT22;47002;50.856;6.580;2022-09-09T01:42:49;13.10;86.00
61117;DHT22;47002;50.856;6.580;2022-09-09T01:45:17;13.10;86.10
61117;DHT22;47002;50.856;6.580;2022-09-09T01:47:44;13.10;86.30
61117;DHT22;47002;50.856;6.580;2022-09-09T01:50:13;13.10;86.50
61117;DHT22;47002;50.856;6.580;2022-09-09T01:52:40;13.10;86.70
61117;DHT22;47002;50.856;6.580;2022-09-09T01:55:07;13.10;86.90
61117;DHT22;47002;50.856;6.580;2022-09-09T01:57:39;13.10;87.00
61117;DHT22;47002;50.856;6.580;2022-09-09T02:00:10;13.10;86.90
61117;DHT22;47002;50.856;6.580;2022-09-09T02:02:44;13.00;87.00
61117;DHT22;47002;50.856;6.580;2022-09-09T02:05:21;13.10;87.20
61117;DHT22;47002;50.856;6.580;2022-09-09T02:07:55;13.10;87.30
61117;DHT22;47002;50.856;6.580;2022-09-09T02:10:28;13.10;87.40
61117;DHT22;47002;50.856;6.580;2022-09-09T02:13:02;13.00;87.50
61117;DHT22;47002;50.856;6.580;2022-09-09T02:15:34;13.00;87.70
61117;DHT22;47002;50.856;6.580;2022-09-09T02:18:04;13.00;87.70
61117;DHT22;47002;50.856;6.580;2022-09-09T02:20:32;13.00;87.80
61117;DHT22;47002;50.856;6.580;2022-09-09T02:22:59;13.00;88.00
61117;DHT22;47002;50.856;6.580;2022-09-09T02:25:28;13.10;88.10
61117;DHT22;47002;50.856;6.580;2022-09-09T02:27:54;13.10;88.20
61117;DHT22;47002;50.856;6.580;2022-09-09T02:30:20;13.10;88.20
61117;DHT22;47002;50.856;6.580;2022-09-09T02:32:48;13.20;88.20
61117;DHT22;47002;50.856;6.580;2022-09-09T02:35:19;13.20;88.30
61117;DHT22;47002;50.856;6.580;2022-09-09T02:37:46;13.30;88.20
61117;DHT22;47002;50.856;6.580;2022-09-09T02:40:13;13.40;88.10
61117;DHT22;47002;50.856;6.580;2022-09-09T02:42:40;13.40;88.00
61117;DHT22;47002;50.856;6.580;2022-09-09T02:45:07;13.50;87.90
61117;DHT22;47002;50.856;6.580;2022-09-09T02:47:35;13.50;87.80
61117;DHT22;47002;50.856;6.580;2022-09-09T02:50:13;13.60;87.70
61117;DHT22;47002;50.856;6.580;2022-09-09T02:52:51;13.60;87.60
61117;DHT22;47002;50.856;6.580;2022-09-09T02:55:23;13.60;87.50
61117;DHT22;47002;50.856;6.580;2022-09-09T02:57:50;13.70;87.50
61117;DHT22;47002;50.856;6.580;2022-09-09T03:00:22;13.70;87.50
61117;DHT22;47002;50.856;6.580;2022-09-09T03:02:48;13.70;87.40
61117;DHT22;47002;50.856;6.580;2022-09-09T03:05:14;13.70;87.30
61117;DHT22;47002;50.856;6.580;2022-09-09T03:07:39;13.80;87.30
61117;DHT22;47002;50.856;6.580;2022-09-09T03:10:08;13.80;87.30
61117;DHT22;47002;50.856;6.580;2022-09-09T03:12:33;13.80;87.20
61117;DHT22;47002;50.856;6.580;2022-09-09T03:14:59;13.80;87.20
61117;DHT22;47002;50.856;6.580;2022-09-09T03:17:25;13.80;87.20
61117;DHT22;47002;50.856;6.580;2022-09-09T03:19:50;13.90;87.70
61117;DHT22;47002;50.856;6.580;2022-09-09T03:22:16;14.00;87.50
61117;DHT22;47002;50.856;6.580;2022-09-09T03:24:42;14.10;87.40
61117;DHT22;47002;50.856;6.580;2022-09-09T03:27:09;14.10;86.90
61117;DHT22;47002;50.856;6.580;2022-09-09T03:29:34;14.20;86.90
61117;DHT22;47002;50.856;6.580;2022-09-09T03:32:00;14.30;86.50
61117;DHT22;47002;50.856;6.580;2022-09-09T03:34:26;14.40;86.10
61117;DHT22;47002;50.856;6.580;2022-09-09T03:36:52;14.40;85.80
61117;DHT22;47002;50.856;6.580;2022-09-09T03:39:17;14.40;85.70
61117;DHT22;47002;50.856;6.580;2022-09-09T03:41:43;14.50;85.70
61117;DHT22;47002;50.856;6.580;2022-09-09T03:44:10;14.50;85.60
61117;DHT22;47002;50.856;6.580;2022-09-09T03:46:36;14.50;85.40
61117;DHT22;47002;50.856;6.580;2022-09-09T03:49:01;14.50;85.30
61117;DHT22;47002;50.856;6.580;2022-09-09T03:51:27;14.40;85.30
61117;DHT22;47002;50.856;6.580;2022-09-09T03:53:53;14.50;85.30
61117;DHT22;47002;50.856;6.580;2022-09-09T03:56:18;14.50;85.30
61117;DHT22;47002;50.856;6.580;2022-09-09T03:58:44;14.50;85.20
61117;DHT22;47002;50.856;6.580;2022-09-09T04:01:12;14.50;85.10
61117;DHT22;47002;50.856;6.580;2022-09-09T04:03:39;14.50;84.90
61117;DHT22;47002;50.856;6.580;2022-09-09T04:06:06;14.50;84.50
61117;DHT22;47002;50.856;6.580;2022-09-09T04:08:32;14.60;84.30
61117;DHT22;47002;50.856;6.580;2022-09-09T04:10:58;14.60;84.00
61117;DHT22;47002;50.856;6.580;2022-09-09T04:13:24;14.70;84.10
61117;DHT22;47002;50.856;6.580;2022-09-09T04:15:51;14.60;84.20
61117;DHT22;47002;50.856;6.580;2022-09-09T04:18:19;14.60;84.30
61117;DHT22;47002;50.856;6.580;2022-09-09T04:20:46;14.70;84.30
61117;DHT22;47002;50.856;6.580;2022-09-09T04:23:11;14.60;84.50
61117;DHT22;47002;50.856;6.580;2022-09-09T04:25:37;14.60;84.70
61117;DHT22;47002;50.856;6.580;2022-09-09T04:28:03;14.50;84.90
61117;DHT22;47002;50.856;6.580;2022-09-09T04:30:28;14.50;85.00
61117;DHT22;47002;50.856;6.580;2022-09-09T04:32:54;14.40;85.20
61117;DHT22;47002;50.856;6.580;2022-09-09T04:35:21;14.40;85.30
61117;DHT22;47002;50.856;6.580;2022-09-09T04:37:47;14.40;85.30
61117;DHT22;47002;50.856;6.580;2022-09-09T04:40:13;14.30;85.30
61117;DHT22;47002;50.856;6.580;2022-09-09T04:42:39;14.40;85.20
61117;DHT22;47002;50.856;6.580;2022-09-09T04:45:05;14.40;85.30
61117;DHT22;47002;50.856;6.580;2022-09-09T04:47:31;14.40;85.40
61117;DHT22;47002;50.856;6.580;2022-09-09T04:49:57;14.40;85.40
61117;DHT22;47002;50.856;6.580;2022-09-09T04:52:24;14.40;85.50
61117;DHT22;47002;50.856;6.580;2022-09-09T04:54:50;14.30;85.40
61117;DHT22;47002;50.856;6.580;2022-09-09T04:57:15;14.40;85.70
61117;DHT22;47002;50.856;6.580;2022-09-09T04:59:41;14.40;85.80
61117;DHT22;47002;50.856;6.580;2022-09-09T05:02:07;14.50;85.70
61117;DHT22;47002;50.856;6.580;2022-09-09T05:04:32;14.60;85.20
61117;DHT22;47002;50.856;6.580;2022-09-09T05:06:58;14.60;84.80
61117;DHT22;47002;50.856;6.580;2022-09-09T05:09:25;14.60;84.80
61117;DHT22;47002;50.856;6.580;2022-09-09T05:11:51;14.60;84.60
61117;DHT22;47002;50.856;6.580;2022-09-09T05:14:17;14.60;84.50
61117;DHT22;47002;50.856;6.580;2022-09-09T05:16:44;14.50;84.40
61117;DHT22;47002;50.856;6.580;2022-09-09T05:19:09;14.60;84.10
61117;DHT22;47002;50.856;6.580;2022-09-09T05:21:35;14.60;84.00
61117;DHT22;47002;50.856;6.580;2022-09-09T05:24:01;14.60;83.80
61117;DHT22;47002;50.856;6.580;2022-09-09T05:26:28;14.60;83.60
61117;DHT22;47002;50.856;6.580;2022-09-09T05:28:53;14.60;83.20
61117;DHT22;47002;50.856;6.580;2022-09-09T05:31:19;14.60;83.40
61117;DHT22;47002;50.856;6.580;2022-09-09T05:33:46;14.60;83.10
61117;DHT22;47002;50.856;6.580;2022-09-09T05:36:13;14.60;83.00
61117;DHT22;47002;50.856;6.580;2022-09-09T05:38:39;14.70;83.30
61117;DHT22;47002;50.856;6.580;2022-09-09T05:41:06;14.60;82.80
61117;DHT22;47002;50.856;6.580;2022-09-09T05:43:34;14.70;82.20
61117;DHT22;47002;50.856;6.580;2022-09-09T05:46:00;14.70;82.20
61117;DHT22;47002;50.856;6.580;2022-09-09T05:48:28;14.70;81.80
61117;DHT22;47002;50.856;6.580;2022-09-09T05:50:54;14.70;81.70
61117;DHT22;47002;50.856;6.580;2022-09-09T05:53:20;14.70;81.70
61117;DHT22;47002;50.856;6.580;2022-09-09T05:55:45;14.60;81.90
61117;DHT22;47002;50.856;6.580;2022-09-09T05:58:11;14.60;82.10
61117;DHT22;47002;50.856;6.580;2022-09-09T06:00:38;14.60;82.30
61117;DHT22;47002;50.856;6.580;2022-09-09T06:03:04;14.60;82.20
61117;DHT22;47002;50.856;6.580;2022-09-09T06:05:30;14.60;82.50
61117;DHT22;47002;50.856;6.580;2022-09-09T06:07:55;14.60;82.30
61117;DHT22;47002;50.856;6.580;2022-09-09T06:10:21;14.60;82.20
61117;DHT22;47002;50.856;6.580;2022-09-09T06:12:47;14.60;82.20
61117;DHT22;47002;50.856;6.580;2022-09-09T06:15:13;14.70;82.30
61117;DHT22;47002;50.856;6.580;2022-09-09T06:17:40;14.80;82.10
61117;DHT22;47002;50.856;6.580;2022-09-09T06:20:06;14.80;81.90
61117;DHT22;47002;50.856;6.580;2022-09-09T06:22:32;14.90;81.70
61117;DHT22;47002;50.856;6.580;2022-09-09T06:24:58;15.10;81.50
61117;DHT22;47002;50.856;6.580;2022-09-09T06:27:23;15.10;80.80
61117;DHT22;47002;50.856;6.580;2022-09-09T06:29:49;15.20;80.00
61117;DHT22;47002;50.856;6.580;2022-09-09T06:32:15;15.40;79.40
61117;DHT22;47002;50.856;6.580;2022-09-09T06:34:42;15.60;79.00
61117;DHT22;47002;50.856;6.580;2022-09-09T06:37:07;15.60;77.50
61117;DHT22;47002;50.856;6.580;2022-09-09T06:39:33;15.70;76.40
61117;DHT22;47002;50.856;6.580;2022-09-09T06:41:59;15.80;76.00
61117;DHT22;47002;50.856;6.580;2022-09-09T06:44:24;15.80;74.80
61117;DHT22;47002;50.856;6.580;2022-09-09T06:46:50;15.90;74.90
61117;DHT22;47002;50.856;6.580;2022-09-09T06:49:16;15.90;75.20
61117;DHT22;47002;50.856;6.580;2022-09-09T06:51:43;15.90;75.20
61117;DHT22;47002;50.856;6.580;2022-09-09T06:54:10;16.00;74.70
61117;DHT22;47002;50.856;6.580;2022-09-09T06:56:37;16.10;74.50
61117;DHT22;47002;50.856;6.580;2022-09-09T06:59:04;16.10;72.90
61117;DHT22;47002;50.856;6.580;2022-09-09T07:01:32;16.20;71.80
61117;DHT22;47002;50.856;6.580;2022-09-09T07:03:59;16.30;71.90
61117;DHT22;47002;50.856;6.580;2022-09-09T07:06:26;16.40;71.70
61117;DHT22;47002;50.856;6.580;2022-09-09T07:08:54;16.40;71.60
61117;DHT22;47002;50.856;6.580;2022-09-09T07:11:23;16.50;70.70
61117;DHT22;47002;50.856;6.580;2022-09-09T07:13:49;16.60;71.10
61117;DHT22;47002;50.856;6.580;2022-09-09T07:16:17;16.60;70.10
61117;DHT22;47002;50.856;6.580;2022-09-09T07:18:44;16.70;70.40
61117;DHT22;47002;50.856;6.580;2022-09-09T07:21:10;16.70;70.00
61117;DHT22;47002;50.856;6.580;2022-09-09T07:23:36;16.80;68.30
61117;DHT22;47002;50.856;6.580;2022-09-09T07:26:08;16.80;69.30
61117;DHT22;47002;50.856;6.580;2022-09-09T07:28:34;16.80;68.00
61117;DHT22;47002;50.856;6.580;2022-09-09T07:31:00;16.70;68.80
61117;DHT22;47002;50.856;6.580;2022-09-09T07:33:26;16.70;67.70
61117;DHT22;47002;50.856;6.580;2022-09-09T07:35:53;16.70;68.30
61117;DHT22;47002;50.856;6.580;2022-09-09T07:38:19;16.70;68.30
61117;DHT22;47002;50.856;6.580;2022-09-09T07:40:44;16.90;69.00
61117;DHT22;47002;50.856;6.580;2022-09-09T07:43:11;17.10;66.40
61117;DHT22;47002;50.856;6.580;2022-09-09T07:45:37;17.30;65.70
61117;DHT22;47002;50.856;6.580;2022-09-09T07:48:03;17.50;65.90
61117;DHT22;47002;50.856;6.580;2022-09-09T07:50:29;17.60;65.40
61117;DHT22;47002;50.856;6.580;2022-09-09T07:52:55;17.70;63.20
61117;DHT22;47002;50.856;6.580;2022-09-09T07:55:21;17.80;63.40
61117;DHT22;47002;50.856;6.580;2022-09-09T07:57:47;17.70;62.70
61117;DHT22;47002;50.856;6.580;2022-09-09T08:00:15;17.60;63.40
61117;DHT22;47002;50.856;6.580;2022-09-09T08:02:40;17.50;65.10
61117;DHT22;47002;50.856;6.580;2022-09-09T08:05:06;17.40;64.60
61117;DHT22;47002;50.856;6.580;2022-09-09T08:07:32;17.30;64.50
61117;DHT22;47002;50.856;6.580;2022-09-09T08:09:58;17.40;65.20
61117;DHT22;47002;50.856;6.580;2022-09-09T08:12:24;17.60;64.90
61117;DHT22;47002;50.856;6.580;2022-09-09T08:14:49;17.90;64.40
61117;DHT22;47002;50.856;6.580;2022-09-09T08:17:16;18.20;62.40
61117;DHT22;47002;50.856;6.580;2022-09-09T08:19:42;18.20;59.90
61117;DHT22;47002;50.856;6.580;2022-09-09T08:22:08;18.10;60.00
61117;DHT22;47002;50.856;6.580;2022-09-09T08:24:33;18.10;60.20
61117;DHT22;47002;50.856;6.580;2022-09-09T08:26:59;17.90;60.10
61117;DHT22;47002;50.856;6.580;2022-09-09T08:29:25;17.80;60.20
61117;DHT22;47002;50.856;6.580;2022-09-09T08:31:52;17.80;59.40
61117;DHT22;47002;50.856;6.580;2022-09-09T08:34:19;17.80;60.00
61117;DHT22;47002;50.856;6.580;2022-09-09T08:36:46;17.70;60.10
61117;DHT22;47002;50.856;6.580;2022-09-09T08:39:13;17.70;60.80
61117;DHT22;47002;50.856;6.580;2022-09-09T08:48:00;17.90;59.70
61117;DHT22;47002;50.856;6.580;2022-09-09T08:50:32;17.90;60.00
61117;DHT22;47002;50.856;6.580;2022-09-09T08:53:01;17.90;60.20
61117;DHT22;47002;50.856;6.580;2022-09-09T08:55:35;17.90;60.70
61117;DHT22;47002;50.856;6.580;2022-09-09T08:58:08;18.10;61.30
61117;DHT22;47002;50.856;6.580;2022-09-09T09:00:42;18.20;60.30
61117;DHT22;47002;50.856;6.580;2022-09-09T09:03:18;18.20;59.10
61117;DHT22;47002;50.856;6.580;2022-09-09T09:05:54;18.10;59.60
61117;DHT22;47002;50.856;6.580;2022-09-09T09:08:26;18.10;60.30
61117;DHT22;47002;50.856;6.580;2022-09-09T09:10:56;18.10;60.10
61117;DHT22;47002;50.856;6.580;2022-09-09T09:13:30;18.00;60.40
61117;DHT22;47002;50.856;6.580;2022-09-09T09:16:01;17.90;61.40
61117;DHT22;47002;50.856;6.580;2022-09-09T09:18:28;17.90;61.70
61117;DHT22;47002;50.856;6.580;2022-09-09T09:21:03;18.00;61.40
61117;DHT22;47002;50.856;6.580;2022-09-09T09:23:38;18.00;61.40
61117;DHT22;47002;50.856;6.580;2022-09-09T09:26:09;18.00;62.10
61117;DHT22;47002;50.856;6.580;2022-09-09T09:28:36;18.00;60.20
61117;DHT22;47002;50.856;6.580;2022-09-09T09:31:04;18.00;61.80
61117;DHT22;47002;50.856;6.580;2022-09-09T09:33:35;18.10;61.70
61117;DHT22;47002;50.856;6.580;2022-09-09T09:36:05;18.10;60.90
61117;DHT22;47002;50.856;6.580;2022-09-09T09:38:31;18.00;61.70
61117;DHT22;47002;50.856;6.580;2022-09-09T09:40:58;18.10;61.40
61117;DHT22;47002;50.856;6.580;2022-09-09T09:43:25;18.20;61.20
61117;DHT22;47002;50.856;6.580;2022-09-09T09:45:51;18.40;60.50
61117;DHT22;47002;50.856;6.580;2022-09-09T09:48:17;18.60;59.70
61117;DHT22;47002;50.856;6.580;2022-09-09T09:50:48;18.60;59.20
61117;DHT22;47002;50.856;6.580;2022-09-09T09:53:21;18.50;59.10
61117;DHT22;47002;50.856;6.580;2022-09-09T09:55:52;18.40;59.70
61117;DHT22;47002;50.856;6.580;2022-09-09T09:58:19;18.60;59.60
61117;DHT22;47002;50.856;6.580;2022-09-09T10:00:48;18.60;59.60
61117;DHT22;47002;50.856;6.580;2022-09-09T10:03:21;18.80;60.70
61117;DHT22;47002;50.856;6.580;2022-09-09T10:05:47;19.10;59.80
61117;DHT22;47002;50.856;6.580;2022-09-09T10:08:14;19.20;58.80
61117;DHT22;47002;50.856;6.580;2022-09-09T10:11:00;19.20;58.50
61117;DHT22;47002;50.856;6.580;2022-09-09T10:13:31;19.20;58.80
61117;DHT22;47002;50.856;6.580;2022-09-09T10:16:21;19.20;57.60
61117;DHT22;47002;50.856;6.580;2022-09-09T10:18:58;19.10;58.40
61117;DHT22;47002;50.856;6.580;2022-09-09T10:21:45;19.10;59.10
61117;DHT22;47002;50.856;6.580;2022-09-09T10:24:26;19.10;58.40
61117;DHT22;47002;50.856;6.580;2022-09-09T10:26:58;19.00;59.40
61117;DHT22;47002;50.856;6.580;2022-09-09T10:29:53;18.90;58.30
61117;DHT22;47002;50.856;6.580;2022-09-09T10:32:38;18.90;58.60
61117;DHT22;47002;50.856;6.580;2022-09-09T10:35:12;19.00;57.40
61117;DHT22;47002;50.856;6.580;2022-09-09T10:37:51;19.00;58.70
61117;DHT22;47002;50.856;6.580;2022-09-09T10:40:32;19.10;58.40
61117;DHT22;47002;50.856;6.580;2022-09-09T10:43:07;19.20;58.00
61117;DHT22;47002;50.856;6.580;2022-09-09T10:45:45;19.30;57.30
61117;DHT22;47002;50.856;6.580;2022-09-09T10:48:30;19.30;57.30
61117;DHT22;47002;50.856;6.580;2022-09-09T10:51:03;19.20;57.40
61117;DHT22;47002;50.856;6.580;2022-09-09T10:53:38;18.90;57.30
61117;DHT22;47002;50.856;6.580;2022-09-09T10:56:09;18.70;57.70
61117;DHT22;47002;50.856;6.580;2022-09-09T10:58:41;18.70;57.50
61117;DHT22;47002;50.856;6.580;2022-09-09T11:01:13;18.70;57.90
61117;DHT22;47002;50.856;6.580;2022-09-09T11:03:42;18.90;56.20
61117;DHT22;47002;50.856;6.580;2022-09-09T11:06:12;19.00;57.20
61117;DHT22;47002;50.856;6.580;2022-09-09T11:08:39;19.00;57.00
61117;DHT22;47002;50.856;6.580;2022-09-09T11:11:10;19.10;57.00
61117;DHT22;47002;50.856;6.580;2022-09-09T11:13:42;19.20;57.20
61117;DHT22;47002;50.856;6.580;2022-09-09T11:16:19;19.30;56.30
61117;DHT22;47002;50.856;6.580;2022-09-09T11:18:46;19.40;56.30
61117;DHT22;47002;50.856;6.580;2022-09-09T11:21:17;19.20;56.30
61117;DHT22;47002;50.856;6.580;2022-09-09T11:23:47;19.10;56.40
61117;DHT22;47002;50.856;6.580;2022-09-09T11:26:18;19.10;54.90
61117;DHT22;47002;50.856;6.580;2022-09-09T11:29:03;18.90;56.40
61117;DHT22;47002;50.856;6.580;2022-09-09T11:31:44;18.90;56.90
61117;DHT22;47002;50.856;6.580;2022-09-09T11:34:19;19.10;55.80
61117;DHT22;47002;50.856;6.580;2022-09-09T11:37:00;19.10;54.70
61117;DHT22;47002;50.856;6.580;2022-09-09T11:39:43;19.00;55.60
61117;DHT22;47002;50.856;6.580;2022-09-09T11:42:18;18.90;56.80
61117;DHT22;47002;50.856;6.580;2022-09-09T11:44:46;18.80;57.60
61117;DHT22;47002;50.856;6.580;2022-09-09T11:47:22;18.70;56.40
61117;DHT22;47002;50.856;6.580;2022-09-09T11:49:48;18.80;56.60
61117;DHT22;47002;50.856;6.580;2022-09-09T11:52:21;19.10;55.90
61117;DHT22;47002;50.856;6.580;2022-09-09T11:54:49;19.30;55.80
61117;DHT22;47002;50.856;6.580;2022-09-09T11:57:24;19.40;54.20
61117;DHT22;47002;50.856;6.580;2022-09-09T11:59:52;19.30;54.40
61117;DHT22;47002;50.856;6.580;2022-09-09T12:02:22;19.10;54.50
61117;DHT22;47002;50.856;6.580;2022-09-09T12:04:55;18.90;54.90
61117;DHT22;47002;50.856;6.580;2022-09-09T12:07:32;18.80;56.30
61117;DHT22;47002;50.856;6.580;2022-09-09T12:10:02;18.70;56.60
61117;DHT22;47002;50.856;6.580;2022-09-09T12:12:31;18.50;57.70
61117;DHT22;47002;50.856;6.580;2022-09-09T12:15:03;18.30;58.50
61117;DHT22;47002;50.856;6.580;2022-09-09T12:17:30;18.10;61.20
61117;DHT22;47002;50.856;6.580;2022-09-09T12:20:08;17.90;62.70
61117;DHT22;47002;50.856;6.580;2022-09-09T12:25:29;17.80;65.70
61117;DHT22;47002;50.856;6.580;2022-09-09T12:28:03;17.90;65.60
61117;DHT22;47002;50.856;6.580;2022-09-09T12:30:34;18.30;63.50
61117;DHT22;47002;50.856;6.580;2022-09-09T12:33:02;18.80;61.30
61117;DHT22;47002;50.856;6.580;2022-09-09T12:35:28;19.20;60.80
61117;DHT22;47002;50.856;6.580;2022-09-09T12:37:57;19.50;59.80
61117;DHT22;47002;50.856;6.580;2022-09-09T12:40:25;19.60;57.30
61117;DHT22;47002;50.856;6.580;2022-09-09T12:42:51;19.80;57.40
61117;DHT22;47002;50.856;6.580;2022-09-09T12:45:19;20.00;54.70
61117;DHT22;47002;50.856;6.580;2022-09-09T12:47:50;20.00;54.50
61117;DHT22;47002;50.856;6.580;2022-09-09T12:50:19;19.90;55.70
61117;DHT22;47002;50.856;6.580;2022-09-09T12:52:47;19.80;56.40
61117;DHT22;47002;50.856;6.580;2022-09-09T12:55:18;19.80;56.60
61117;DHT22;47002;50.856;6.580;2022-09-09T12:57:44;19.80;56.40
61117;DHT22;47002;50.856;6.580;2022-09-09T13:00:15;19.90;56.50
61117;DHT22;47002;50.856;6.580;2022-09-09T13:02:51;20.10;56.90
61117;DHT22;47002;50.856;6.580;2022-09-09T13:05:20;20.20;56.60
61117;DHT22;47002;50.856;6.580;2022-09-09T13:07:46;20.10;55.20
61117;DHT22;47002;50.856;6.580;2022-09-09T13:10:13;19.90;56.00
61117;DHT22;47002;50.856;6.580;2022-09-09T13:12:39;19.70;56.40
61117;DHT22;47002;50.856;6.580;2022-09-09T13:15:13;19.60;57.60
61117;DHT22;47002;50.856;6.580;2022-09-09T13:17:40;19.60;56.90
61117;DHT22;47002;50.856;6.580;2022-09-09T13:20:16;19.60;56.90
61117;DHT22;47002;50.856;6.580;2022-09-09T13:22:42;19.60;56.30
61117;DHT22;47002;50.856;6.580;2022-09-09T13:25:19;19.50;57.40
61117;DHT22;47002;50.856;6.580;2022-09-09T13:27:53;19.40;58.50
61117;DHT22;47002;50.856;6.580;2022-09-09T13:30:21;19.40;58.30
61117;DHT22;47002;50.856;6.580;2022-09-09T13:32:47;19.40;58.30
61117;DHT22;47002;50.856;6.580;2022-09-09T13:35:24;19.40;58.30
61117;DHT22;47002;50.856;6.580;2022-09-09T13:37:50;19.30;56.90
61117;DHT22;47002;50.856;6.580;2022-09-09T13:40:18;19.20;57.90
61117;DHT22;47002;50.856;6.580;2022-09-09T13:42:44;19.10;56.70
61117;DHT22;47002;50.856;6.580;2022-09-09T13:45:16;19.10;57.00
61117;DHT22;47002;50.856;6.580;2022-09-09T13:47:43;19.00;58.20
61117;DHT22;47002;50.856;6.580;2022-09-09T13:50:19;18.90;59.90
61117;DHT22;47002;50.856;6.580;2022-09-09T13:52:46;18.70;61.70
61117;DHT22;47002;50.856;6.580;2022-09-09T13:55:12;18.60;61.60
61117;DHT22;47002;50.856;6.580;2022-09-09T13:57:38;18.40;64.00
61117;DHT22;47002;50.856;6.580;2022-09-09T14:00:05;18.30;66.60
61117;DHT22;47002;50.856;6.580;2022-09-09T14:02:31;18.20;67.90
61117;DHT22;47002;50.856;6.580;2022-09-09T14:04:57;17.80;70.80
61117;DHT22;47002;50.856;6.580;2022-09-09T14:07:22;17.40;73.90
61117;DHT22;47002;50.856;6.580;2022-09-09T14:09:49;16.90;76.50
61117;DHT22;47002;50.856;6.580;2022-09-09T14:12:15;16.60;76.70
61117;DHT22;47002;50.856;6.580;2022-09-09T14:14:41;16.40;77.60
61117;DHT22;47002;50.856;6.580;2022-09-09T14:17:07;16.40;78.00
61117;DHT22;47002;50.856;6.580;2022-09-09T14:19:33;16.40;78.70
61117;DHT22;47002;50.856;6.580;2022-09-09T14:21:58;16.40;79.30
61117;DHT22;47002;50.856;6.580;2022-09-09T14:24:24;17.00;78.40
61117;DHT22;47002;50.856;6.580;2022-09-09T14:26:51;17.50;77.10
61117;DHT22;47002;50.856;6.580;2022-09-09T14:29:17;18.30;75.80
61117;DHT22;47002;50.856;6.580;2022-09-09T14:31:43;18.70;70.60
61117;DHT22;47002;50.856;6.580;2022-09-09T14:34:08;18.90;69.20
61117;DHT22;47002;50.856;6.580;2022-09-09T14:36:34;19.00;69.60
61117;DHT22;47002;50.856;6.580;2022-09-09T14:39:00;19.20;69.00
61117;DHT22;47002;50.856;6.580;2022-09-09T14:41:25;19.40;68.20
61117;DHT22;47002;50.856;6.580;2022-09-09T14:43:52;19.30;64.80
61117;DHT22;47002;50.856;6.580;2022-09-09T14:46:19;19.10;66.50
61117;DHT22;47002;50.856;6.580;2022-09-09T14:48:45;18.70;66.90
61117;DHT22;47002;50.856;6.580;2022-09-09T14:51:13;18.40;67.80
61117;DHT22;47002;50.856;6.580;2022-09-09T14:53:40;18.20;68.70
61117;DHT22;47002;50.856;6.580;2022-09-09T14:56:07;18.00;68.30
61117;DHT22;47002;50.856;6.580;2022-09-09T14:58:33;17.90;69.20
61117;DHT22;47002;50.856;6.580;2022-09-09T15:01:04;17.80;70.90
61117;DHT22;47002;50.856;6.580;2022-09-09T15:03:30;17.50;73.60
61117;DHT22;47002;50.856;6.580;2022-09-09T15:05:56;17.30;75.70
61117;DHT22;47002;50.856;6.580;2022-09-09T15:08:21;17.20;77.40
61117;DHT22;47002;50.856;6.580;2022-09-09T15:10:47;17.10;77.10
61117;DHT22;47002;50.856;6.580;2022-09-09T15:13:15;17.10;76.80
61117;DHT22;47002;50.856;6.580;2022-09-09T15:15:40;17.10;76.40
61117;DHT22;47002;50.856;6.580;2022-09-09T15:18:07;17.00;75.60
61117;DHT22;47002;50.856;6.580;2022-09-09T15:20:33;17.00;76.00
61117;DHT22;47002;50.856;6.580;2022-09-09T15:22:58;17.00;76.50
61117;DHT22;47002;50.856;6.580;2022-09-09T15:25:24;17.10;76.30
61117;DHT22;47002;50.856;6.580;2022-09-09T15:27:50;17.10;75.60
61117;DHT22;47002;50.856;6.580;2022-09-09T15:30:15;17.40;76.20
61117;DHT22;47002;50.856;6.580;2022-09-09T15:32:41;17.70;76.10
61117;DHT22;47002;50.856;6.580;2022-09-09T15:35:08;17.80;74.70
61117;DHT22;47002;50.856;6.580;2022-09-09T15:37:34;17.80;74.90
61117;DHT22;47002;50.856;6.580;2022-09-09T15:40:00;17.70;75.90
61117;DHT22;47002;50.856;6.580;2022-09-09T15:42:25;17.70;75.70
61117;DHT22;47002;50.856;6.580;2022-09-09T15:44:51;17.60;75.10
61117;DHT22;47002;50.856;6.580;2022-09-09T15:47:17;17.40;75.60
61117;DHT22;47002;50.856;6.580;2022-09-09T15:49:42;17.10;75.80